Attica, Kansas
Current Conditions -  °F | °C
As of 4:55 AM on Friday 19 Dec 2014 (Local Time) from KAVK Reporting Station
Haze Haze  
Wind Chill:   Ceiling: 1200
Heat Index:   Visibility: 5mi
Dew Point:   Wind: 0mph
Humidity: 100%   Direction: NA
Pressure: 30.18"   Gusts: NA
Location:  37.24°N, 98.23°W
Report Text: KAVK 191055Z AUTO 00000KT 5SM BR OVC012 01/01 A3018 RMK AO2
Loading
Personal Weather Stations






























Interactive Weather Map New forecast layout! Learn more

10-Day Weather Forecast

Advertisements
Track Severe Weather on mobile